北九州空港の過去48時間の天気

北九州空港 (Kitakyushu)

現在時刻: 2/22 16:29 JST (2/22 07:29 UTC) 以下の時間は現地時間です。

過去48時間のMETAR気象情報
時間 風向 風速(m/s) 視程 気温(℃) 湿度(%) 気圧(hPa) 天気現象
22 16:00 西 10 10km以上 13 35 1023
22 15:00 西北西 10 10km以上 14 38 1022
22 14:36 西 10 10km以上 14 41 1022
22 14:00 西北西 10 10km以上 14 47 1022
22 12:00 西北西 11 10km以上 15 55 1023
22 11:00 西 8 10km以上 14 72 1023
22 10:00 西 8 10km以上 13 82 1024
22 09:00 西南西 3 10km以上 13 88 1023
22 08:28 南南西 3 10km以上 13 88 1023 弱いしゅう雨
22 08:08 南南西 3 10km以上 12 94 1023 しゅう雨
22 08:00 南南西 4 10km以上 12 94 1023 弱いしゅう雨
22 06:00 4 10km以上 12 88 1022 弱い雨
22 05:00 3 10km以上 11 87 1022 弱い雨
22 04:37 北西 7 10km以上 11 87 1022 弱い雨
22 03:00 北北東 2 10km以上 11 82 1022 弱い雨
22 02:00 不定 1 10km以上 11 87 1023
22 01:00 北東 2 10km以上 11 87 1024
22 00:00 北北東 2 10km以上 10 87 1025
21 23:00 不定 1 10km以上 11 76 1026
21 22:00 不定 1 10km以上 11 82 1027
21 21:00 北北東 2 10km以上 10 87 1028
21 20:00 東北東 2 10km以上 10 87 1028
21 19:00 南東 3 10km以上 10 87 1029
21 18:00 東南東 2 10km以上 11 82 1029
21 17:00 東南東 4 10km以上 12 67 1030
21 16:00 3 10km以上 12 67 1030
21 15:00 不定 2 10km以上 12 62 1031
21 14:00 不定 2 10km以上 12 58 1031
21 13:00 2 10km以上 11 62 1032
21 12:00 3 10km以上 11 58 1033
21 11:00 東南東 2 10km以上 10 71 1034
21 10:00 南東 3 10km以上 9 76 1034
21 09:00 南南東 4 10km以上 8 81 1034
21 08:00 南南東 5 10km以上 7 87 1035
21 07:00 南南東 3 10km以上 5 93 1035
21 06:00 東北東 3 10km以上 7 81 1035
21 05:00 不定 1 10km以上 5 93 1034
21 04:00 北北西 2 10km以上 7 81 1034
21 03:00 北北西 1 10km以上 5 87 1033
21 02:00 北東 3 10km以上 7 76 1034
21 01:00 不定 1 10km以上 7 81 1034
21 00:00 不定 2 10km以上 7 81 1034
20 23:00 北北西 3 10km以上 8 76 1034
20 22:00 北西 3 10km以上 8 76 1034
20 21:00 4 10km以上 9 76 1033
20 20:00 5 10km以上 9 71 1033
20 19:00 5 10km以上 10 66 1032
20 18:00 4 10km以上 11 62 1032
20 17:00 北西 5 10km以上 12 58 1031
RJFR 220700Z 27019KT 9999 FEW025 13/M02 Q1023
RJFR 220600Z 29020KT 9999 FEW025 14/00 Q1022
RJFR 220536Z 27019G30KT 9999 FEW025 14/01 Q1022 RMK 1CU025 A3020
RJFR 220500Z 29020KT 9999 FEW025 SCT040 14/03 Q1022
RJFR 220300Z 29021KT 9999 FEW025 SCT035 15/06 Q1023
RJFR 220200Z 27016KT 9999 FEW015 SCT030 BKN060 14/09 Q1023
RJFR 220100Z 28016KT 9999 FEW015 SCT025 BKN035 13/10 Q1024
RJFR 220000Z 25006KT 9999 FEW008 SCT020 BKN030 13/11 Q1023
RJFR 212328Z 21006KT 180V260 9999 -SHRA FEW010 SCT020 BKN030 13/11 Q1023 RMK 1CU010 3CU020 6CU030 A3022
RJFR 212308Z 20006KT 9999 SHRA FEW010 SCT020 BKN030 12/11 Q1023 RMK 1CU010 3CU020 6CU030 A3022
RJFR 212300Z 20007KT 9999 -SHRA FEW010 SCT020 BKN030 12/11 Q1023
RJFR 212100Z 19007KT 9999 -RA FEW020 BKN035 BKN070 12/10 Q1022
RJFR 212000Z VRB06KT 9999 -RA FEW020 BKN035 BKN070 11/09 Q1022
RJFR 211937Z 32014KT 9999 -RA FEW030 SCT040 BKN060 11/09 Q1022 RMK 1CU030 3SC040 6SC060 A3018
RJFR 211800Z 02004KT 340V050 9999 -RA FEW030 SCT060 BKN080 11/08 Q1022
RJFR 211700Z VRB02KT 9999 FEW030 BKN070 11/09 Q1023
RJFR 211600Z 04004KT 9999 FEW030 BKN070 11/09 Q1024
RJFR 211500Z 02004KT 9999 FEW030 BKN080 BKN110 10/08 Q1025
RJFR 211400Z VRB01KT 9999 FEW030 BKN070 BKN110 11/07 Q1026
RJFR 211300Z VRB02KT 9999 FEW030 BKN070 BKN090 11/08 Q1027
RJFR 211200Z 03003KT 9999 FEW035 BKN070 BKN090 10/08 Q1028
RJFR 211100Z 07003KT 030V100 9999 FEW035 SCT090 10/08 Q1028
RJFR 211000Z 14006KT 9999 FEW035 10/08 Q1029
RJFR 210900Z 11004KT 010V180 9999 FEW035 11/08 Q1029
RJFR 210800Z 12007KT 9999 FEW040 12/06 Q1030
RJFR 210700Z VRB05KT 9999 FEW030 12/06 Q1030
RJFR 210600Z VRB04KT 9999 FEW030 12/05 Q1031
RJFR 210500Z VRB03KT CAVOK 12/04 Q1031
RJFR 210400Z 08004KT 030V110 CAVOK 11/04 Q1032
RJFR 210300Z 09006KT 040V140 CAVOK 11/03 Q1033
RJFR 210200Z 12003KT 070V180 CAVOK 10/05 Q1034
RJFR 210100Z 13005KT 090V190 9999 FEW020 09/05 Q1034
RJFR 210000Z 15007KT 9999 FEW020 08/05 Q1034
RJFR 202300Z 16009KT 9999 FEW010 07/05 Q1035
RJFR 202200Z 16005KT 9999 FEW010 05/04 Q1035
RJFR 202100Z 07005KT CAVOK 07/04 Q1035
RJFR 202000Z VRB02KT CAVOK 05/04 Q1034
RJFR 201900Z 33004KT CAVOK 07/04 Q1034
RJFR 201800Z 34002KT CAVOK 05/03 Q1033
RJFR 201700Z 04005KT CAVOK 07/03 Q1034
RJFR 201600Z VRB01KT CAVOK 07/04 Q1034
RJFR 201500Z VRB04KT 9999 FEW030 07/04 Q1034
RJFR 201400Z 34005KT 9999 FEW030 08/04 Q1034
RJFR 201300Z 32005KT 9999 FEW030 08/04 Q1034
RJFR 201200Z 35007KT 9999 FEW030 09/05 Q1033
RJFR 201100Z 36009KT 9999 FEW030 09/04 Q1033
RJFR 201000Z 01009KT 9999 FEW030 10/04 Q1032
RJFR 200900Z 01008KT 9999 FEW030 11/04 Q1032
RJFR 200800Z 31010KT 9999 FEW030 12/04 Q1031